Time;durP1;ratioP1;P1;durP2;ratioP2;P2;SDS_P1;SDS_P2;PMS_P1;PMS_P2;Temp;Humidity;BMP_temperature;BMP_pressure;BME280_temperature;BME280_humidity;BME280_pressure;Samples;Min_cycle;Max_cycle;Signal;HPM_P1;HPM_P2
2021/12/21 00:02:15;;;;;;;35.35;8.80;;;;;;;-1.17;100.00;102772.59;5075873;28;20027;-45
2021/12/21 00:04:40;;;;;;;26.60;7.88;;;;;;;-1.20;100.00;102783.16;5075757;28;20544;-45
2021/12/21 00:07:06;;;;;;;31.70;8.98;;;;;;;-1.24;100.00;102776.28;5076468;28;20028;-44
2021/12/21 00:09:31;;;;;;;24.60;7.95;;;;;;;-1.27;100.00;102776.34;5075887;28;20446;-44
2021/12/21 00:11:59;;;;;;;24.45;7.95;;;;;;;-1.31;100.00;102764.19;5074741;28;20084;-44
2021/12/21 00:14:49;;;;;;;25.60;8.38;;;;;;;-1.35;100.00;102762.56;5076962;28;20024;-43
2021/12/21 00:17:29;;;;;;;25.50;7.53;;;;;;;-1.41;100.00;102770.56;5055774;28;20421;-45
2021/12/21 00:20:11;;;;;;;30.92;8.55;;;;;;;-1.42;100.00;102769.72;5073749;28;20357;-48
2021/12/21 00:25:22;;;;;;;26.00;7.18;;;;;;;-1.53;100.00;102750.75;5077139;28;20324;-44
2021/12/21 00:27:51;;;;;;;22.23;7.80;;;;;;;-1.52;100.00;102753.34;5079826;28;20024;-45
2021/12/21 00:30:16;;;;;;;22.52;8.27;;;;;;;-1.56;100.00;102753.44;5080348;28;20523;-45
2021/12/21 00:32:42;;;;;;;23.10;7.55;;;;;;;-1.60;100.00;102755.25;5078303;28;20028;-44
2021/12/21 00:35:08;;;;;;;30.08;8.38;;;;;;;-1.63;100.00;102755.34;5080133;28;20020;-44
2021/12/21 00:37:36;;;;;;;26.17;8.07;;;;;;;-1.70;100.00;102741.53;5079967;28;20059;-46
2021/12/21 00:40:03;;;;;;;21.42;7.82;;;;;;;-1.72;100.00;102747.69;5077123;28;20119;-46
2021/12/21 00:42:28;;;;;;;21.23;7.43;;;;;;;-1.78;100.00;102740.84;5080165;28;20546;-44
2021/12/21 00:44:54;;;;;;;23.25;7.70;;;;;;;-1.80;100.00;102745.25;5079976;28;20024;-43
2021/12/21 00:47:19;;;;;;;25.15;8.27;;;;;;;-1.85;100.00;102747.13;5079850;28;20016;-46
2021/12/21 00:49:46;;;;;;;22.85;7.82;;;;;;;-1.86;100.00;102747.16;5079349;28;20051;-44
2021/12/21 00:52:13;;;;;;;27.23;8.35;;;;;;;-1.88;100.00;102742.78;5061340;28;20027;-43
2021/12/21 00:54:38;;;;;;;21.85;7.78;;;;;;;-1.90;100.00;102746.31;5078159;28;20478;-45
2021/12/21 00:57:04;;;;;;;26.77;7.95;;;;;;;-1.94;100.00;102745.53;5080192;28;20023;-44
2021/12/21 00:59:30;;;;;;;24.40;8.23;;;;;;;-1.96;100.00;102751.72;5080479;28;20027;-47
2021/12/21 01:01:56;;;;;;;23.25;8.10;;;;;;;-2.00;100.00;102745.69;5079464;28;20099;-43
2021/12/21 01:04:27;;;;;;;23.52;7.65;;;;;;;-2.01;100.00;102743.09;5080090;28;20020;-45
2021/12/21 01:07:03;;;;;;;20.33;8.38;;;;;;;-2.08;100.00;102739.75;5060591;28;20032;-45
2021/12/21 01:09:57;;;;;;;27.52;8.00;;;;;;;-2.08;100.00;102745.84;5079336;28;20512;-47
2021/12/21 01:12:24;;;;;;;29.48;8.18;;;;;;;-2.10;100.00;102744.16;5079668;28;20032;-44
2021/12/21 01:17:26;;;;;;;23.92;7.88;;;;;;;-2.19;100.00;102747.84;5079826;28;20028;-45
2021/12/21 01:20:03;;;;;;;27.25;8.15;;;;;;;-2.23;100.00;102745.31;5079467;28;20117;-44
2021/12/21 01:27:36;;;;;;;23.55;8.57;;;;;;;-2.29;100.00;102733.19;5080599;28;20524;-43
2021/12/21 01:30:25;;;;;;;32.72;9.45;;;;;;;-2.28;100.00;102730.53;5079373;28;20126;-47
2021/12/21 01:40:38;;;;;;;28.92;8.65;;;;;;;-2.32;100.00;102726.28;5077545;28;20055;-45
2021/12/21 01:43:23;;;;;;;26.83;8.65;;;;;;;-2.33;100.00;102735.00;5079036;28;20456;-44
2021/12/21 01:51:18;;;;;;;24.08;8.32;;;;;;;-2.45;100.00;102723.03;5078511;28;20071;-45
2021/12/21 01:53:45;;;;;;;25.23;8.38;;;;;;;-2.48;100.00;102717.00;5077286;28;20429;-44
2021/12/21 01:56:11;;;;;;;28.63;8.82;;;;;;;-2.51;100.00;102719.69;5078060;28;20407;-44
2021/12/21 01:58:39;;;;;;;29.85;9.02;;;;;;;-2.55;100.00;102718.03;5078581;28;20154;-44
2021/12/21 02:01:07;;;;;;;27.48;9.10;;;;;;;-2.60;100.00;102725.94;5078835;28;20390;-46
2021/12/21 02:03:33;;;;;;;30.75;10.02;;;;;;;-2.63;100.00;102728.66;5070616;28;20024;-43
2021/12/21 02:05:58;;;;;;;24.65;8.57;;;;;;;-2.64;100.00;102719.06;5057909;28;20546;-45
2021/12/21 02:08:24;;;;;;;23.20;8.98;;;;;;;-2.65;100.00;102719.94;5058423;28;20071;-48
2021/12/21 02:10:49;;;;;;;28.33;8.80;;;;;;;-2.65;100.00;102714.72;5056958;28;20016;-44
2021/12/21 02:13:15;;;;;;;25.35;9.00;;;;;;;-2.67;100.00;102711.28;5058388;28;20040;-43
2021/12/21 02:15:40;;;;;;;24.30;8.30;;;;;;;-2.67;100.00;102711.28;5057896;28;20114;-44
2021/12/21 02:20:56;;;;;;;28.00;9.05;;;;;;;-2.68;100.00;102697.34;5058135;28;20932;-45
2021/12/21 02:23:32;;;;;;;23.63;9.20;;;;;;;-2.68;100.00;102702.56;5059429;28;20032;-46
2021/12/21 02:28:45;;;;;;;19.60;8.73;;;;;;;-2.70;100.00;102699.13;5057951;28;20028;-42
2021/12/21 02:31:09;;;;;;;23.67;9.63;;;;;;;-2.74;100.00;102705.31;5057837;28;20032;-45
2021/12/21 02:33:35;;;;;;;30.00;8.68;;;;;;;-2.77;100.00;102707.97;5056855;28;20047;-44
2021/12/21 02:36:01;;;;;;;27.23;9.40;;;;;;;-2.79;100.00;102707.13;5057916;28;20111;-43
2021/12/21 02:38:27;;;;;;;25.38;8.65;;;;;;;-2.79;100.00;102709.75;5057204;28;20417;-44
2021/12/21 02:40:53;;;;;;;23.30;8.35;;;;;;;-2.83;100.00;102714.19;5056249;28;20024;-43
2021/12/21 02:43:19;;;;;;;25.90;8.68;;;;;;;-2.84;100.00;102708.97;5059529;28;20024;-45
2021/12/21 02:45:44;;;;;;;25.92;9.40;;;;;;;-2.86;100.00;102711.63;5077335;28;20511;-44
2021/12/21 02:48:10;;;;;;;25.08;8.52;;;;;;;-2.88;100.00;102705.56;5077445;28;20034;-42
2021/12/21 02:50:38;;;;;;;21.55;8.80;;;;;;;-2.89;100.00;102695.13;5077181;28;20081;-47
2021/12/21 02:53:04;;;;;;;23.38;8.80;;;;;;;-2.89;100.00;102692.53;5077062;28;20036;-44
2021/12/21 02:55:30;;;;;;;26.13;8.65;;;;;;;-2.92;100.00;102690.84;5058211;28;20035;-44
2021/12/21 02:57:57;;;;;;;31.70;9.50;;;;;;;-2.92;100.00;102700.41;5076825;28;20442;-45
2021/12/21 03:00:25;;;;;;;22.92;9.32;;;;;;;-2.95;100.00;102695.22;5078036;28;20031;-45
2021/12/21 03:02:51;;;;;;;25.30;8.80;;;;;;;-2.98;100.00;102692.69;5057561;28;20245;-47
2021/12/21 03:05:16;;;;;;;23.40;8.57;;;;;;;-3.03;100.00;102684.94;5055914;28;20020;-45
2021/12/21 03:10:15;;;;;;;30.50;9.18;;;;;;;-3.02;100.00;102689.25;5055827;28;20028;-46
2021/12/21 03:15:23;;;;;;;25.17;9.52;;;;;;;-3.04;100.00;102684.09;5067101;28;20040;-43
2021/12/21 03:17:49;;;;;;;20.73;8.50;;;;;;;-3.07;100.00;102689.34;5076673;28;20479;-46
2021/12/21 03:20:15;;;;;;;26.70;9.00;;;;;;;-3.12;100.00;102685.97;5076971;28;20020;-45
2021/12/21 03:22:40;;;;;;;19.23;8.68;;;;;;;-3.13;100.00;102684.22;5076344;28;20028;-44
2021/12/21 03:25:08;;;;;;;23.27;9.07;;;;;;;-3.13;100.00;102679.00;5075816;28;20548;-44
2021/12/21 03:27:34;;;;;;;24.90;8.60;;;;;;;-3.14;100.00;102682.53;5075953;28;20051;-45
2021/12/21 03:29:59;;;;;;;32.20;9.88;;;;;;;-3.13;100.00;102684.22;5076763;28;20058;-44
2021/12/21 03:32:24;;;;;;;23.52;9.25;;;;;;;-3.14;100.00;102679.03;5077576;28;20489;-45
2021/12/21 03:34:50;;;;;;;28.75;9.55;;;;;;;-3.15;100.00;102678.19;5076331;28;20089;-44
2021/12/21 03:37:15;;;;;;;29.40;10.35;;;;;;;-3.17;100.00;102679.97;5076866;28;20196;-42
2021/12/21 03:39:42;;;;;;;28.25;9.65;;;;;;;-3.19;100.00;102690.44;5075868;28;20028;-44
2021/12/21 03:42:09;;;;;;;29.38;10.07;;;;;;;-3.21;100.00;102680.88;5075954;28;20049;-44
2021/12/21 03:44:35;;;;;;;24.38;9.50;;;;;;;-3.20;100.00;102677.41;5076670;28;20024;-43
2021/12/21 03:47:01;;;;;;;27.00;9.95;;;;;;;-3.21;100.00;102681.78;5076328;28;20032;-43
2021/12/21 03:52:00;;;;;;;38.13;11.50;;;;;;;-3.24;100.00;102668.75;5076447;28;20568;-43
2021/12/21 03:54:26;;;;;;;32.22;10.20;;;;;;;-3.19;100.00;102677.38;5075176;28;20114;-43
2021/12/21 03:56:52;;;;;;;31.10;10.70;;;;;;;-3.18;100.00;102675.63;5076211;28;20103;-43
2021/12/21 03:59:18;;;;;;;31.70;10.65;;;;;;;-3.21;100.00;102678.28;5076181;28;20512;-45
2021/12/21 04:01:44;;;;;;;36.40;10.88;;;;;;;-3.25;100.00;102668.78;5075990;28;20474;-44
2021/12/21 04:04:10;;;;;;;31.55;11.18;;;;;;;-3.24;100.00;102675.72;5075945;28;20024;-42
2021/12/21 04:06:35;;;;;;;33.00;10.85;;;;;;;-3.25;100.00;102671.38;5075945;28;20426;-42
2021/12/21 04:09:05;;;;;;;24.58;10.38;;;;;;;-3.26;100.00;102675.75;5056584;28;20472;-43
2021/12/21 04:11:31;;;;;;;29.17;10.05;;;;;;;-3.28;100.00;102668.81;5076682;28;20080;-44
2021/12/21 04:13:57;;;;;;;25.73;10.57;;;;;;;-3.25;100.00;102674.00;5075762;28;20032;-43
2021/12/21 04:16:23;;;;;;;26.00;10.50;;;;;;;-3.28;100.00;102669.69;5076185;28;20232;-47
2021/12/21 04:18:48;;;;;;;32.17;10.30;;;;;;;-3.27;100.00;102662.72;5075259;28;20131;-46
2021/12/21 04:21:14;;;;;;;35.08;11.63;;;;;;;-3.27;100.00;102667.94;5075800;28;20019;-42
2021/12/21 04:23:41;;;;;;;31.90;11.50;;;;;;;-3.31;100.00;102666.25;5075337;28;20361;-45
2021/12/21 04:26:08;;;;;;;32.53;11.23;;;;;;;-3.33;100.00;102675.88;5075538;28;20069;-44
2021/12/21 04:28:34;;;;;;;46.45;11.68;;;;;;;-3.39;100.00;102671.63;5075857;28;20028;-45
2021/12/21 04:30:59;;;;;;;27.00;11.00;;;;;;;-3.42;100.00;102667.31;5076129;28;20708;-44
2021/12/21 04:33:24;;;;;;;30.73;11.02;;;;;;;-3.43;100.00;102673.44;5075222;28;20047;-45
2021/12/21 04:35:50;;;;;;;34.30;10.88;;;;;;;-3.44;100.00;102678.69;5075559;28;20560;-46
2021/12/21 04:38:25;;;;;;;29.20;11.18;;;;;;;-3.47;100.00;102665.66;5076213;28;20036;-44
2021/12/21 04:40:58;;;;;;;36.10;11.30;;;;;;;-3.48;100.00;102675.25;5057556;28;20020;-45
2021/12/21 04:43:23;;;;;;;29.38;10.60;;;;;;;-3.50;100.00;102666.56;5075976;28;20182;-44
2021/12/21 04:45:49;;;;;;;29.25;10.50;;;;;;;-3.50;100.00;102670.94;5075369;28;20028;-45
2021/12/21 04:48:14;;;;;;;34.83;11.55;;;;;;;-3.52;100.00;102659.66;5075473;28;20035;-47
2021/12/21 04:50:41;;;;;;;31.98;10.77;;;;;;;-3.53;100.00;102652.69;5075611;28;20396;-44
2021/12/21 04:53:07;;;;;;;27.60;10.35;;;;;;;-3.54;100.00;102654.47;5076094;28;20073;-43
2021/12/21 04:55:32;;;;;;;30.08;10.82;;;;;;;-3.57;100.00;102657.97;5074554;28;20048;-44
2021/12/21 04:57:58;;;;;;;33.42;11.52;;;;;;;-3.58;100.00;102661.50;5074538;28;20024;-45
2021/12/21 05:00:23;;;;;;;28.02;10.40;;;;;;;-3.57;100.00;102662.34;5076390;28;20055;-45
2021/12/21 05:02:48;;;;;;;39.13;10.93;;;;;;;-3.58;100.00;102652.78;5074566;28;20032;-44
2021/12/21 05:05:14;;;;;;;25.15;10.70;;;;;;;-3.59;100.00;102654.53;5036823;28;20016;-48
2021/12/21 05:07:41;;;;;;;34.38;11.35;;;;;;;-3.57;100.00;102657.13;5055378;28;20108;-46
2021/12/21 05:10:09;;;;;;;29.27;11.02;;;;;;;-3.59;100.00;102654.53;5055930;28;20024;-47
2021/12/21 05:12:37;;;;;;;32.40;11.23;;;;;;;-3.59;100.00;102649.31;5040156;28;20036;-46
2021/12/21 05:15:05;;;;;;;30.60;11.38;;;;;;;-3.61;100.00;102653.69;5058743;28;20020;-43
2021/12/21 05:17:30;;;;;;;30.55;11.18;;;;;;;-3.59;100.00;102651.91;5058995;28;20028;-46
2021/12/21 05:19:55;;;;;;;27.77;10.93;;;;;;;-3.59;100.00;102654.53;5058466;28;20027;-44
2021/12/21 05:22:21;;;;;;;29.38;11.63;;;;;;;-3.58;100.00;102660.59;5059849;28;20020;-47
2021/12/21 05:24:47;;;;;;;27.92;10.73;;;;;;;-3.59;100.00;102670.19;5057083;28;20047;-46
2021/12/21 05:27:13;;;;;;;25.15;10.82;;;;;;;-3.60;100.00;102663.28;5040610;28;20484;-44
2021/12/21 05:29:38;;;;;;;31.00;10.88;;;;;;;-3.60;100.00;102672.84;5059174;28;20036;-44
2021/12/21 05:32:04;;;;;;;32.10;11.15;;;;;;;-3.65;100.00;102654.66;5040309;28;20025;-45
2021/12/21 05:34:30;;;;;;;34.17;12.15;;;;;;;-3.62;100.00;102672.00;5058527;28;20111;-45
2021/12/21 05:36:56;;;;;;;33.40;11.65;;;;;;;-3.64;100.00;102660.72;5058657;28;20406;-45
2021/12/21 05:39:25;;;;;;;33.80;12.15;;;;;;;-3.63;100.00;102658.09;5057847;28;20094;-44
2021/12/21 05:41:53;;;;;;;37.83;11.60;;;;;;;-3.63;100.00;102665.94;5058671;28;20050;-44
2021/12/21 05:44:20;;;;;;;30.67;11.27;;;;;;;-3.63;100.00;102672.88;5058845;28;20124;-45
2021/12/21 05:46:47;;;;;;;32.30;11.43;;;;;;;-3.65;100.00;102665.09;5058105;28;20345;-46
2021/12/21 05:49:12;;;;;;;34.10;11.88;;;;;;;-3.67;100.00;102666.84;5057993;28;20501;-44
2021/12/21 05:51:37;;;;;;;30.73;11.77;;;;;;;-3.69;100.00;102660.78;5058665;28;20092;-44
2021/12/21 05:54:03;;;;;;;33.25;11.90;;;;;;;-3.72;100.00;102663.44;5055865;28;20047;-43
2021/12/21 05:56:29;;;;;;;33.78;11.75;;;;;;;-3.72;100.00;102673.03;5059375;28;20395;-48
2021/12/21 05:58:54;;;;;;;30.80;11.85;;;;;;;-3.73;100.00;102661.72;5058817;28;20351;-44
2021/12/21 06:01:19;;;;;;;28.52;10.48;;;;;;;-3.72;100.00;102665.19;5058027;28;20108;-45
2021/12/21 06:03:45;;;;;;;35.53;12.07;;;;;;;-3.72;100.00;102670.41;5065880;28;20038;-45
2021/12/21 06:06:15;;;;;;;34.65;11.60;;;;;;;-3.73;100.00;102666.06;5079307;28;20024;-45
2021/12/21 06:08:44;;;;;;;30.17;12.13;;;;;;;-3.75;100.00;102664.38;5058801;28;20483;-44
2021/12/21 06:11:09;;;;;;;33.25;11.88;;;;;;;-3.73;100.00;102658.25;5078539;28;20028;-43
2021/12/21 06:14:02;;;;;;;29.20;11.68;;;;;;;-3.72;100.00;102665.19;5077312;28;20331;-46
2021/12/21 06:27:18;;;;;;;33.15;11.23;;;;;;;-3.79;100.00;102667.88;5098366;28;20039;-42
2021/12/21 06:29:44;;;;;;;31.42;11.82;;;;;;;-3.86;100.00;102648.00;5098013;28;20376;-43
2021/12/21 06:32:10;;;;;;;32.63;11.85;;;;;;;-3.82;100.00;102657.53;5094239;28;20383;-46
2021/12/21 06:34:35;;;;;;;33.97;12.45;;;;;;;-3.82;100.00;102656.63;5098034;28;20130;-47
2021/12/21 06:37:01;;;;;;;31.27;12.48;;;;;;;-3.82;100.00;102656.63;5098012;28;20106;-43
2021/12/21 06:39:28;;;;;;;31.15;11.80;;;;;;;-3.85;100.00;102651.47;5072682;28;20032;-43
2021/12/21 06:41:57;;;;;;;32.78;11.77;;;;;;;-3.83;100.00;102655.78;5078257;28;20565;-45
2021/12/21 06:44:22;;;;;;;32.70;12.40;;;;;;;-3.83;100.00;102660.16;5078046;28;20031;-43
2021/12/21 06:52:27;;;;;;;35.03;11.93;;;;;;;-3.87;100.00;102664.56;5078015;28;20039;-44
2021/12/21 06:54:52;;;;;;;38.17;11.73;;;;;;;-3.89;100.00;102663.69;5076570;28;20024;-44
2021/12/21 06:57:17;;;;;;;35.03;12.88;;;;;;;-3.91;100.00;102665.47;5077283;28;20191;-46
2021/12/21 06:59:43;;;;;;;41.30;12.30;;;;;;;-3.90;100.00;102669.81;5076828;28;20031;-44
2021/12/21 07:02:08;;;;;;;33.65;12.50;;;;;;;-3.89;100.00;102665.47;5077003;28;20101;-44
2021/12/21 07:04:34;;;;;;;34.95;11.93;;;;;;;-3.92;100.00;102665.50;5075778;28;20455;-43
2021/12/21 07:06:59;;;;;;;34.35;12.18;;;;;;;-3.95;100.00;102662.06;5077079;28;20079;-45
2021/12/21 07:09:34;;;;;;;35.03;12.75;;;;;;;-3.95;100.00;102663.81;5076546;28;20103;-43
2021/12/21 07:12:27;;;;;;;43.05;12.20;;;;;;;-3.98;100.00;102663.84;5077119;28;20038;-47
2021/12/21 07:20:21;;;;;;;42.28;12.25;;;;;;;-4.02;100.00;102675.19;5077160;28;20085;-46
2021/12/21 07:22:46;;;;;;;53.10;13.55;;;;;;;-4.05;100.00;102677.88;5077009;28;20412;-44
2021/12/21 07:25:11;;;;;;;45.97;12.55;;;;;;;-4.07;100.00;102675.28;5075994;28;20452;-43
2021/12/21 07:27:37;;;;;;;50.10;13.55;;;;;;;-4.09;100.00;102677.06;5077831;28;20043;-43
2021/12/21 07:30:04;;;;;;;38.60;13.25;;;;;;;-4.08;100.00;102676.16;5077040;28;20092;-44
2021/12/21 07:32:30;;;;;;;38.15;13.23;;;;;;;-4.06;100.00;102681.34;5075874;28;20028;-42
2021/12/21 07:34:55;;;;;;;39.20;12.40;;;;;;;-4.06;100.00;102681.34;5057460;28;20111;-43
2021/12/21 07:37:20;;;;;;;39.72;12.68;;;;;;;-4.07;100.00;102677.00;5077654;28;20032;-44
2021/12/21 07:39:45;;;;;;;45.95;13.07;;;;;;;-4.07;100.00;102684.84;5075657;28;20031;-43
2021/12/21 07:42:11;;;;;;;41.00;13.55;;;;;;;-4.05;100.00;102683.09;5076791;28;20032;-46
2021/12/21 07:44:36;;;;;;;40.10;12.93;;;;;;;-4.05;100.00;102685.72;5076778;28;20085;-47
2021/12/21 07:47:02;;;;;;;38.90;12.82;;;;;;;-4.01;100.00;102689.97;5076360;28;20404;-43
2021/12/21 07:49:27;;;;;;;37.38;13.10;;;;;;;-4.01;100.00;102687.38;5057216;28;20561;-43
2021/12/21 07:51:52;;;;;;;35.25;12.90;;;;;;;-4.01;100.00;102692.59;5076819;28;20917;-44
2021/12/21 07:54:18;;;;;;;37.83;12.77;;;;;;;-4.01;100.00;102693.44;5073366;28;20028;-42
2021/12/21 07:56:44;;;;;;;31.67;12.88;;;;;;;-4.02;100.00;102696.97;5074600;28;20050;-43
2021/12/21 07:59:11;;;;;;;37.05;12.90;;;;;;;-4.00;100.00;102694.34;5074799;28;20043;-44
2021/12/21 08:01:37;;;;;;;31.67;13.05;;;;;;;-4.00;100.00;102697.78;5076176;28;20098;-44
2021/12/21 08:04:03;;;;;;;30.10;13.07;;;;;;;-3.99;100.00;102693.44;5062352;28;20439;-46
2021/12/21 08:06:31;;;;;;;33.88;13.98;;;;;;;-3.98;100.00;102696.03;5067659;28;20035;-44
2021/12/21 08:08:57;;;;;;;41.50;14.35;;;;;;;-3.96;100.00;102693.38;5075016;28;20099;-45
2021/12/21 08:12:11;;;;;;;35.13;13.35;;;;;;;-3.94;100.00;102694.22;5077849;28;20476;-44
2021/12/21 08:14:13;;;;;;;31.92;12.98;;;;;;;-3.92;100.00;102684.66;5075027;28;20043;-49
2021/12/21 08:16:39;;;;;;;45.08;13.35;;;;;;;-3.89;100.00;102692.41;5076137;28;20111;-43
2021/12/21 08:19:04;;;;;;;39.58;13.45;;;;;;;-3.87;100.00;102693.28;5075829;28;20023;-45
2021/12/21 08:21:30;;;;;;;43.45;14.02;;;;;;;-3.86;100.00;102691.53;5076374;28;20028;-48
2021/12/21 08:23:56;;;;;;;39.78;13.88;;;;;;;-3.83;100.00;102691.47;5074433;28;20504;-46
2021/12/21 08:26:21;;;;;;;43.80;15.00;;;;;;;-3.84;100.00;102685.38;5076909;28;20035;-45
2021/12/21 08:28:47;;;;;;;36.97;15.23;;;;;;;-3.78;100.00;102700.97;5056329;28;20470;-44
2021/12/21 08:31:12;;;;;;;42.60;17.08;;;;;;;-3.75;100.00;102698.31;5075911;28;20091;-46
2021/12/21 08:33:39;;;;;;;43.33;17.30;;;;;;;-3.71;100.00;102686.06;5076088;28;20055;-45
2021/12/21 08:36:10;;;;;;;41.47;17.27;;;;;;;-3.67;100.00;102707.75;5075953;28;20464;-43
2021/12/21 08:38:42;;;;;;;47.78;16.00;;;;;;;-3.64;100.00;102703.34;5075188;28;20016;-44
2021/12/21 08:41:07;;;;;;;45.55;15.98;;;;;;;-3.64;100.00;102692.06;5074333;28;20020;-44
2021/12/21 08:43:35;;;;;;;61.45;16.10;;;;;;;-3.57;100.00;102701.50;5076051;28;20034;-43
2021/12/21 08:46:00;;;;;;;43.30;16.20;;;;;;;-3.57;100.00;102697.16;5078269;28;20155;-44
2021/12/21 08:48:26;;;;;;;45.50;16.88;;;;;;;-3.54;100.00;102703.22;5078081;28;20609;-44
2021/12/21 08:50:54;;;;;;;45.25;16.08;;;;;;;-3.53;100.00;102708.44;5077696;28;20036;-43
2021/12/21 08:53:21;;;;;;;40.72;15.93;;;;;;;-3.50;100.00;102710.13;5040348;28;20023;-45
2021/12/21 08:55:47;;;;;;;53.30;16.98;;;;;;;-3.47;100.00;102717.91;5076605;28;20501;-42
2021/12/21 08:58:13;;;;;;;36.85;16.27;;;;;;;-3.45;100.00;102716.97;5078178;28;20091;-43
2021/12/21 09:00:40;;;;;;;52.05;16.95;;;;;;;-3.41;100.00;102720.41;5058975;28;20043;-42
2021/12/21 09:03:06;;;;;;;42.83;16.13;;;;;;;-3.41;100.00;102718.69;5076493;28;20012;-45
2021/12/21 09:05:32;;;;;;;52.13;16.20;;;;;;;-3.39;100.00;102714.28;5077548;28;20032;-45
2021/12/21 09:08:00;;;;;;;37.63;15.88;;;;;;;-3.32;100.00;102716.81;5077427;28;20110;-45
2021/12/21 09:10:26;;;;;;;48.88;17.13;;;;;;;-3.27;100.00;102722.81;5076631;28;20020;-42
2021/12/21 09:12:51;;;;;;;40.90;17.02;;;;;;;-3.23;100.00;102722.72;5078856;28;20026;-47
2021/12/21 09:15:18;;;;;;;44.53;16.90;;;;;;;-3.17;100.00;102723.50;5078044;28;20103;-47
2021/12/21 09:17:45;;;;;;;45.97;16.45;;;;;;;-3.12;100.00;102716.44;5078015;28;20075;-44
2021/12/21 09:20:17;;;;;;;43.22;15.50;;;;;;;-3.08;100.00;102724.22;5076833;28;20088;-46
2021/12/21 09:22:43;;;;;;;48.08;16.60;;;;;;;-3.03;100.00;102721.53;5077835;28;20560;-46
2021/12/21 09:25:10;;;;;;;41.63;16.95;;;;;;;-2.96;100.00;102722.28;5074968;28;20106;-46
2021/12/21 09:27:36;;;;;;;39.58;15.57;;;;;;;-2.91;100.00;102723.91;5076349;28;20054;-43
2021/12/21 09:30:04;;;;;;;42.28;17.52;;;;;;;-2.85;100.00;102717.69;5076468;28;20394;-43
2021/12/21 09:32:30;;;;;;;38.40;16.65;;;;;;;-2.77;100.00;102713.19;5077255;28;20125;-43
2021/12/21 09:34:55;;;;;;;57.10;18.08;;;;;;;-2.71;100.00;102707.88;5075588;28;20409;-43
2021/12/21 09:37:21;;;;;;;47.90;19.27;;;;;;;-2.65;100.00;102707.75;5078265;28;20042;-45
2021/12/21 09:39:52;;;;;;;46.22;19.42;;;;;;;-2.58;100.00;102705.00;5074365;28;20516;-43
2021/12/21 09:42:20;;;;;;;54.33;20.08;;;;;;;-2.52;100.00;102704.91;5076059;28;20554;-46
2021/12/21 09:44:47;;;;;;;53.17;19.38;;;;;;;-2.47;100.00;102700.44;5077938;28;20055;-45
2021/12/21 09:47:14;;;;;;;49.92;19.15;;;;;;;-2.42;100.00;102705.56;5073092;28;20544;-46
2021/12/21 09:49:41;;;;;;;45.42;19.30;;;;;;;-2.35;100.00;102704.56;5080755;28;20127;-44
2021/12/21 09:52:09;;;;;;;60.03;21.35;;;;;;;-2.29;100.00;102705.28;5094110;28;20069;-47
2021/12/21 09:54:36;;;;;;;52.22;20.80;;;;;;;-2.23;100.00;102706.06;5096286;28;20063;-44
2021/12/21 09:57:02;;;;;;;54.42;20.27;;;;;;;-2.17;100.00;102700.66;5073351;28;20315;-43
2021/12/21 09:59:28;;;;;;;53.97;19.17;;;;;;;-2.10;100.00;102691.81;5096324;28;20114;-45
2021/12/21 10:01:56;;;;;;;49.05;19.40;;;;;;;-2.07;100.00;102696.94;5097532;28;20110;-46
2021/12/21 10:04:22;;;;;;;47.58;18.48;;;;;;;-1.98;100.00;102701.16;5088848;28;20104;-45
2021/12/21 10:06:50;;;;;;;45.45;18.92;;;;;;;-1.93;100.00;102702.75;5097338;28;20568;-48
2021/12/21 10:09:18;;;;;;;47.22;18.77;;;;;;;-1.88;100.00;102700.03;5098056;28;20585;-47
2021/12/21 10:11:49;;;;;;;40.70;17.05;;;;;;;-1.82;100.00;102701.66;5097750;28;20020;-46
2021/12/21 10:14:16;;;;;;;48.67;18.55;;;;;;;-1.77;100.00;102698.03;5086028;28;20540;-45
2021/12/21 10:16:42;;;;;;;46.28;18.63;;;;;;;-1.73;100.00;102693.56;5076328;28;20389;-47
2021/12/21 10:19:08;;;;;;;53.70;20.00;;;;;;;-1.67;100.00;102690.81;5076295;28;20028;-44
2021/12/21 10:21:44;;;;;;;41.05;18.55;;;;;;;-1.60;100.00;102684.53;5074940;28;20555;-46
2021/12/21 10:24:20;;;;;;;39.00;18.02;;;;;;;-1.57;100.00;102684.47;5073899;28;20028;-45
2021/12/21 10:26:46;;;;;;;41.13;18.60;;;;;;;-1.50;100.00;102674.69;5076161;28;20059;-47
2021/12/21 10:29:14;;;;;;;45.75;18.00;;;;;;;-1.43;100.00;102686.72;5077149;28;20584;-47
2021/12/21 10:31:41;;;;;;;43.50;17.65;;;;;;;-1.39;100.00;102682.28;5076662;28;20020;-44
2021/12/21 10:34:12;;;;;;;43.83;17.55;;;;;;;-1.36;100.00;102675.22;5074322;28;20418;-47
2021/12/21 10:36:49;;;;;;;43.67;18.20;;;;;;;-1.28;100.00;102674.16;5058454;28;20084;-46
2021/12/21 10:39:28;;;;;;;39.97;17.20;;;;;;;-1.22;100.00;102682.72;5055852;28;20067;-49
2021/12/21 10:41:58;;;;;;;38.58;17.55;;;;;;;-1.17;100.00;102678.22;5074023;28;20286;-42
2021/12/21 10:44:24;;;;;;;45.97;17.48;;;;;;;-1.11;100.00;102676.34;5077510;28;20024;-46
2021/12/21 10:46:52;;;;;;;40.05;17.33;;;;;;;-1.06;100.00;102675.31;5076324;28;20036;-47
2021/12/21 10:49:24;;;;;;;43.35;18.13;;;;;;;-1.01;100.00;102683.91;5076251;28;20084;-47
2021/12/21 10:51:57;;;;;;;41.55;17.42;;;;;;;-0.96;100.00;102683.81;5075738;28;20537;-46
2021/12/21 10:54:30;;;;;;;40.72;16.88;;;;;;;-0.90;100.00;102688.00;5076683;28;20529;-46
2021/12/21 10:57:00;;;;;;;38.83;16.35;;;;;;;-0.88;100.00;102683.56;5076157;28;20031;-43
2021/12/21 10:59:32;;;;;;;37.40;16.42;;;;;;;-0.82;100.00;102679.03;5059117;28;20028;-44
2021/12/21 11:02:13;;;;;;;41.08;15.68;;;;;;;-0.79;100.00;102683.34;5075826;28;20032;-43
2021/12/21 11:04:42;;;;;;;40.63;15.90;;;;;;;-0.76;100.00;102678.03;5066523;28;20573;-46
2021/12/21 11:07:20;;;;;;;41.67;16.23;;;;;;;-0.68;100.00;102678.66;5070489;28;20588;-45
2021/12/21 11:10:11;;;;;;;38.28;15.70;;;;;;;-0.63;100.00;102670.66;5073452;28;21097;-45
2021/12/21 11:12:57;;;;;;;31.75;14.52;;;;;;;-0.57;100.00;102671.34;5075494;28;20348;-45
2021/12/21 11:15:32;;;;;;;36.42;14.43;;;;;;;-0.53;100.00;102673.88;5076129;28;20277;-43
2021/12/21 11:18:00;;;;;;;29.80;13.68;;;;;;;-0.50;100.00;102664.16;5057533;28;20488;-44
2021/12/21 11:20:27;;;;;;;36.28;13.95;;;;;;;-0.46;100.00;102660.53;5076459;28;20494;-43
2021/12/21 11:22:53;;;;;;;32.88;14.48;;;;;;;-0.41;100.00;102645.53;5073773;28;20458;-47
2021/12/21 11:25:20;;;;;;;38.15;15.00;;;;;;;-0.35;100.00;102639.22;5056829;28;20078;-47
2021/12/21 11:27:47;;;;;;;38.88;14.93;;;;;;;-0.29;100.00;102631.16;5075446;28;20028;-47
2021/12/21 11:30:15;;;;;;;32.90;14.57;;;;;;;-0.22;100.00;102622.19;5075407;28;20134;-43
2021/12/21 11:32:44;;;;;;;35.10;14.65;;;;;;;-0.18;100.00;102622.94;5074676;28;20074;-46
2021/12/21 11:37:41;;;;;;;28.33;13.50;;;;;;;-0.07;100.00;102617.34;5074293;28;20055;-43
2021/12/21 11:40:09;;;;;;;34.90;13.75;;;;;;;-0.02;100.00;102613.69;5074702;28;20427;-45
2021/12/21 11:42:40;;;;;;;34.05;14.20;;;;;;;0.02;100.00;102616.19;5074186;28;20381;-47
2021/12/21 11:45:22;;;;;;;31.00;14.00;;;;;;;0.06;100.00;102616.06;5075883;28;20138;-46
2021/12/21 11:47:58;;;;;;;30.20;13.95;;;;;;;0.13;100.00;102617.56;5075591;28;20040;-44
2021/12/21 11:50:24;;;;;;;29.65;14.27;;;;;;;0.17;100.00;102618.31;5075354;28;20043;-44
2021/12/21 11:52:53;;;;;;;34.08;14.80;;;;;;;0.22;100.00;102610.31;5072533;28;20031;-47
2021/12/21 11:55:24;;;;;;;29.90;13.48;;;;;;;0.26;100.00;102612.78;5075396;28;20020;-43
2021/12/21 11:57:53;;;;;;;39.47;15.23;;;;;;;0.32;100.00;102611.72;5069691;28;20515;-42
2021/12/21 12:00:24;;;;;;;27.10;13.07;;;;;;;0.32;100.00;102606.47;5075249;28;20472;-44
2021/12/21 12:02:52;;;;;;;25.85;12.20;;;;;;;0.40;100.00;102614.09;5074620;28;20028;-44
2021/12/21 12:05:31;;;;;;;30.20;12.30;;;;;;;0.44;100.00;102606.06;5078462;28;20148;-46
2021/12/21 12:08:10;;;;;;;24.98;11.30;;;;;;;0.47;100.00;102607.72;5053525;28;20056;-44
2021/12/21 12:10:38;;;;;;;33.97;12.38;;;;;;;0.53;100.00;102597.84;5054964;28;20143;-45